Time;durP1;ratioP1;P1;durP2;ratioP2;P2;SDS_P1;SDS_P2;PMS_P1;PMS_P2;Temp;Humidity;BMP_temperature;BMP_pressure;BME280_temperature;BME280_humidity;BME280_pressure;Samples;Min_cycle;Max_cycle;Signal;HPM_P1;HPM_P2
2022/10/26 00:00:51;;;;;;;32.75;14.55;;;10.20;99.90;;;;;;5152670;27;19971;-63
2022/10/26 00:03:17;;;;;;;32.83;15.02;;;10.20;99.90;;;;;;5135152;27;20047;-63
2022/10/26 00:05:43;;;;;;;39.15;16.63;;;10.10;99.90;;;;;;5153534;27;20099;-62
2022/10/26 00:08:09;;;;;;;32.80;15.07;;;10.20;99.90;;;;;;5153281;27;20053;-62
2022/10/26 00:10:36;;;;;;;31.27;16.40;;;10.20;99.90;;;;;;5133827;27;20502;-62
2022/10/26 00:13:04;;;;;;;28.95;14.93;;;10.20;99.90;;;;;;5153591;27;20167;-63
2022/10/26 00:15:30;;;;;;;34.42;15.57;;;9.80;99.90;;;;;;5153188;27;20046;-62
2022/10/26 00:17:55;;;;;;;34.33;15.45;;;10.20;99.90;;;;;;5153688;27;20054;-64
2022/10/26 00:20:22;;;;;;;32.40;14.65;;;;;;;;;;5153463;27;20039;-62
2022/10/26 00:22:47;;;;;;;;;;;10.00;99.90;;;;;;5153923;27;20054;-62
2022/10/26 00:25:13;;;;;;;28.58;15.27;;;9.90;99.90;;;;;;5153188;27;19922;-64
2022/10/26 00:27:38;;;;;;;35.88;14.95;;;9.90;99.90;;;;;;5152595;27;20034;-64
2022/10/26 00:30:06;;;;;;;33.50;14.13;;;10.00;99.90;;;;;;5152085;27;20446;-62
2022/10/26 00:32:32;;;;;;;32.80;13.82;;;9.80;99.90;;;;;;5153077;27;20090;-62
2022/10/26 00:34:58;;;;;;;35.17;14.48;;;9.90;99.90;;;;;;5134280;27;20042;-62
2022/10/26 00:37:24;;;;;;;34.88;15.90;;;9.80;99.90;;;;;;5153576;27;20046;-62
2022/10/26 00:39:50;;;;;;;33.17;15.70;;;9.90;99.90;;;;;;5152693;27;20428;-62
2022/10/26 00:42:20;;;;;;;32.83;15.60;;;10.10;99.90;;;;;;5153325;27;20130;-62
2022/10/26 00:44:46;;;;;;;34.33;14.93;;;10.00;99.90;;;;;;5152857;27;20050;-62
2022/10/26 00:47:23;;;;;;;31.08;15.75;;;10.10;99.90;;;;;;5153011;27;20047;-64
2022/10/26 00:49:53;;;;;;;37.53;16.30;;;10.10;99.90;;;;;;5152953;27;20034;-63
2022/10/26 00:52:20;;;;;;;32.85;15.40;;;10.20;99.90;;;;;;5134452;27;20079;-62
2022/10/26 00:54:45;;;;;;;37.40;14.60;;;10.00;99.90;;;;;;5134917;27;20051;-62
2022/10/26 00:57:13;;;;;;;30.80;14.82;;;10.20;99.90;;;;;;5152927;27;20051;-62
2022/10/26 00:59:40;;;;;;;31.52;14.02;;;9.70;99.90;;;;;;5153551;27;20050;-63
2022/10/26 01:02:06;;;;;;;38.58;14.93;;;10.40;99.90;;;;;;5152009;27;20067;-64
2022/10/26 01:04:33;;;;;;;29.00;13.70;;;10.00;99.90;;;;;;5152506;27;20129;-66
2022/10/26 01:07:00;;;;;;;33.47;14.88;;;10.00;99.90;;;;;;5152741;27;20106;-63
2022/10/26 01:09:26;;;;;;;21.52;13.20;;;10.10;99.90;;;;;;5152903;27;20038;-62
2022/10/26 01:11:52;;;;;;;35.92;15.68;;;10.10;99.90;;;;;;5153016;27;20061;-62
2022/10/26 01:14:18;;;;;;;32.97;15.02;;;9.90;99.90;;;;;;5152877;27;20058;-66
2022/10/26 01:17:15;;;;;;;34.15;15.20;;;10.00;99.90;;;;;;5133812;27;20046;-62
2022/10/26 01:20:05;;;;;;;27.20;14.63;;;10.00;99.90;;;;;;5152401;27;20051;-63
2022/10/26 01:22:37;;;;;;;30.60;13.93;;;10.20;99.90;;;;;;5152536;27;20096;-62
2022/10/26 01:25:09;;;;;;;34.35;15.27;;;9.60;99.90;;;;;;5133234;27;20060;-63
2022/10/26 01:27:39;;;;;;;33.55;15.68;;;9.90;99.90;;;;;;5133506;27;20099;-62
2022/10/26 01:30:29;;;;;;;35.47;15.15;;;10.00;99.90;;;;;;5152903;27;20043;-64
2022/10/26 01:32:55;;;;;;;35.28;15.65;;;9.80;99.90;;;;;;5133754;27;20502;-62
2022/10/26 01:35:32;;;;;;;28.05;15.15;;;9.60;99.90;;;;;;5152714;27;20072;-62
2022/10/26 01:38:35;;;;;;;31.70;14.88;;;9.90;99.90;;;;;;5134319;27;20487;-63
2022/10/26 01:41:01;;;;;;;33.97;15.13;;;9.90;99.90;;;;;;5152745;27;20049;-62
2022/10/26 01:43:32;;;;;;;32.90;15.35;;;9.90;99.90;;;;;;5152816;27;20047;-63
2022/10/26 01:45:59;;;;;;;29.25;15.80;;;9.70;99.90;;;;;;5151666;27;20114;-65
2022/10/26 01:48:26;;;;;;;30.90;15.88;;;10.00;99.90;;;;;;5151248;27;20050;-65
2022/10/26 01:50:54;;;;;;;32.95;15.20;;;10.00;99.90;;;;;;5151438;27;20127;-64
2022/10/26 01:53:20;;;;;;;33.08;15.57;;;9.80;99.90;;;;;;5154356;27;20125;-63
2022/10/26 01:55:50;;;;;;;29.77;16.45;;;9.70;99.90;;;;;;5156506;27;20129;-62
2022/10/26 01:58:48;;;;;;;33.80;15.55;;;10.20;99.90;;;;;;5155793;27;20494;-62
2022/10/26 02:01:14;;;;;;;30.02;15.82;;;9.80;99.90;;;;;;5114413;27;20430;-63
2022/10/26 02:03:48;;;;;;;33.88;16.55;;;9.60;99.90;;;;;;5155910;27;20054;-62
2022/10/26 02:06:39;;;;;;;35.05;15.82;;;9.60;99.90;;;;;;5156164;27;20050;-62
2022/10/26 02:09:27;;;;;;;36.80;15.18;;;9.70;99.90;;;;;;5155421;27;20049;-63
2022/10/26 02:11:54;;;;;;;28.10;15.73;;;9.20;99.90;;;;;;5156324;27;20081;-64
2022/10/26 02:14:41;;;;;;;38.05;14.80;;;9.50;99.90;;;;;;5155540;27;20481;-62
2022/10/26 02:17:19;;;;;;;34.25;14.93;;;9.50;99.90;;;;;;5154693;27;20085;-62
2022/10/26 02:20:01;;;;;;;31.80;15.00;;;9.50;99.90;;;;;;5155264;27;20046;-63
2022/10/26 02:22:35;;;;;;;35.78;16.40;;;9.50;99.90;;;;;;5155512;27;20089;-65
2022/10/26 02:25:07;;;;;;;31.45;15.40;;;9.30;99.90;;;;;;5155716;27;20049;-62
2022/10/26 02:27:37;;;;;;;35.78;16.25;;;9.50;99.90;;;;;;5155383;27;20042;-64
2022/10/26 02:30:04;;;;;;;31.45;16.27;;;9.10;99.90;;;;;;5155766;27;20125;-62
2022/10/26 02:32:34;;;;;;;32.97;17.17;;;9.30;99.90;;;;;;5155150;27;20090;-65
2022/10/26 02:35:02;;;;;;;31.50;17.13;;;9.70;99.90;;;;;;5154976;27;20039;-62
2022/10/26 02:37:29;;;;;;;39.67;18.23;;;9.60;99.90;;;;;;5155602;27;20504;-62
2022/10/26 02:39:57;;;;;;;35.28;18.00;;;9.10;99.90;;;;;;5155175;27;20082;-62
2022/10/26 02:42:25;;;;;;;40.05;18.90;;;9.40;99.90;;;;;;5155822;27;20466;-62
2022/10/26 02:44:56;;;;;;;40.08;17.67;;;9.60;99.90;;;;;;5155358;27;20046;-62
2022/10/26 02:47:24;;;;;;;37.75;17.80;;;9.50;99.90;;;;;;5155072;27;20038;-63
2022/10/26 02:49:51;;;;;;;34.72;18.35;;;9.40;99.90;;;;;;5154960;27;20178;-63
2022/10/26 02:52:36;;;;;;;38.60;19.45;;;9.30;99.90;;;;;;5153994;27;20457;-66
2022/10/26 02:55:06;;;;;;;36.20;19.40;;;9.30;99.90;;;;;;5154558;27;20046;-62
2022/10/26 02:57:41;;;;;;;43.17;20.75;;;9.50;99.90;;;;;;5154865;27;20046;-63
2022/10/26 03:00:10;;;;;;;44.00;19.80;;;9.10;99.90;;;;;;5154585;27;20046;-63
2022/10/26 03:02:36;;;;;;;35.72;19.05;;;9.30;99.90;;;;;;5153770;27;20035;-62
2022/10/26 03:05:24;;;;;;;35.30;19.40;;;9.10;99.90;;;;;;5153495;27;20527;-63
2022/10/26 03:07:49;;;;;;;42.05;20.25;;;9.40;99.90;;;;;;5153658;27;20051;-63
2022/10/26 03:10:15;;;;;;;42.97;21.55;;;9.40;99.90;;;;;;5153886;27;20034;-65
2022/10/26 03:12:41;;;;;;;37.80;20.35;;;9.10;99.90;;;;;;5154568;27;20127;-62
2022/10/26 03:15:07;;;;;;;41.63;19.75;;;9.10;99.90;;;;;;5154050;27;20419;-62
2022/10/26 03:17:32;;;;;;;39.08;20.45;;;9.20;99.90;;;;;;5155423;27;20363;-63
2022/10/26 03:19:58;;;;;;;38.25;20.77;;;9.30;99.90;;;;;;5154674;27;20046;-63
2022/10/26 03:22:24;;;;;;;38.83;19.60;;;9.10;99.90;;;;;;5154965;27;20099;-65
2022/10/26 03:24:49;;;;;;;42.35;20.27;;;9.20;99.90;;;;;;5154110;27;20043;-65
2022/10/26 03:27:15;;;;;;;39.83;19.77;;;8.90;99.90;;;;;;5154041;27;20049;-63
2022/10/26 03:29:41;;;;;;;42.90;19.38;;;9.40;99.90;;;;;;5153983;27;20398;-62
2022/10/26 03:32:07;;;;;;;38.60;19.90;;;9.10;99.90;;;;;;5154729;27;20385;-62
2022/10/26 03:34:33;;;;;;;43.15;19.98;;;9.00;99.90;;;;;;5154129;27;20050;-63
2022/10/26 03:36:58;;;;;;;35.28;18.55;;;8.60;99.90;;;;;;5153362;27;20035;-62
2022/10/26 03:39:24;;;;;;;33.78;18.60;;;9.10;99.90;;;;;;5153415;27;20126;-64
2022/10/26 03:41:50;;;;;;;43.05;20.02;;;9.30;99.90;;;;;;5154474;27;20089;-62
2022/10/26 03:44:16;;;;;;;38.75;19.50;;;9.30;99.90;;;;;;5153592;27;20051;-64
2022/10/26 03:46:41;;;;;;;43.92;19.45;;;9.40;99.90;;;;;;5153334;27;20542;-64
2022/10/26 03:49:07;;;;;;;35.13;18.58;;;9.10;99.90;;;;;;5152612;27;20046;-63
2022/10/26 03:51:32;;;;;;;40.92;20.02;;;9.30;99.90;;;;;;5153808;27;20128;-64
2022/10/26 03:53:58;;;;;;;38.88;18.55;;;9.00;99.90;;;;;;5153475;27;20043;-64
2022/10/26 03:56:24;;;;;;;38.92;18.85;;;9.10;99.90;;;;;;5154022;27;20050;-62
2022/10/26 03:58:50;;;;;;;;;;;9.20;99.90;;;;;;5154030;27;20067;-62
2022/10/26 04:01:15;;;;;;;34.35;18.95;;;9.00;99.90;;;;;;5153930;27;19923;-62
2022/10/26 04:03:41;;;;;;;34.08;18.98;;;9.10;99.90;;;;;;5153865;27;20057;-62
2022/10/26 04:06:07;;;;;;;35.80;19.42;;;9.30;99.90;;;;;;5152796;27;20039;-62
2022/10/26 04:08:32;;;;;;;35.03;19.42;;;9.40;99.90;;;;;;5152799;27;20043;-66
2022/10/26 04:10:58;;;;;;;37.55;20.25;;;9.10;99.90;;;;;;5153935;27;20107;-63
2022/10/26 04:13:24;;;;;;;39.38;20.15;;;9.00;99.90;;;;;;5153108;27;20049;-62
2022/10/26 04:15:49;;;;;;;37.38;19.30;;;9.30;99.90;;;;;;5153178;27;20053;-66
2022/10/26 04:18:15;;;;;;;38.75;19.50;;;9.00;99.90;;;;;;5153402;27;20038;-63
2022/10/26 04:20:41;;;;;;;32.28;18.10;;;9.20;99.90;;;;;;5153846;27;20042;-63
2022/10/26 04:23:13;;;;;;;38.70;19.10;;;9.20;99.90;;;;;;5153249;27;20049;-62
2022/10/26 04:25:39;;;;;;;36.13;18.95;;;9.00;99.90;;;;;;5153175;27;20043;-62
2022/10/26 04:28:06;;;;;;;44.38;20.08;;;9.30;99.90;;;;;;5152749;27;20043;-65
2022/10/26 04:30:33;;;;;;;35.00;19.90;;;9.10;99.90;;;;;;5153081;27;20039;-62
2022/10/26 04:32:59;;;;;;;35.92;18.95;;;9.20;99.90;;;;;;5152482;27;20047;-62
2022/10/26 04:35:25;;;;;;;38.35;18.50;;;9.10;99.90;;;;;;5153353;27;20046;-62
2022/10/26 04:37:51;;;;;;;39.47;20.25;;;9.10;99.90;;;;;;5153256;27;20082;-64
2022/10/26 04:40:17;;;;;;;33.65;18.35;;;9.10;99.90;;;;;;5153348;27;20047;-62
2022/10/26 04:42:46;;;;;;;34.17;19.05;;;9.00;99.90;;;;;;5152549;27;20493;-62
2022/10/26 04:45:13;;;;;;;32.08;18.20;;;9.40;99.90;;;;;;5152868;27;20046;-62
2022/10/26 04:47:40;;;;;;;29.98;17.83;;;9.10;99.90;;;;;;5152926;27;20125;-63
2022/10/26 04:50:07;;;;;;;38.25;18.30;;;9.40;99.90;;;;;;5153629;27;20093;-63
2022/10/26 04:52:33;;;;;;;30.50;18.23;;;9.30;99.90;;;;;;5152205;27;20043;-65
2022/10/26 04:54:58;;;;;;;;;;;9.30;99.90;;;;;;5153730;27;20038;-62
2022/10/26 04:57:24;;;;;;;28.63;17.15;;;9.10;99.90;;;;;;5153285;27;19944;-61
2022/10/26 04:59:50;;;;;;;30.60;18.15;;;9.00;99.90;;;;;;5153610;27;20103;-62
2022/10/26 05:02:15;;;;;;;36.88;19.25;;;9.30;99.90;;;;;;5153146;27;20050;-63
2022/10/26 05:04:41;;;;;;;31.88;18.60;;;9.30;99.90;;;;;;5153349;27;20101;-62
2022/10/26 05:07:07;;;;;;;36.17;19.02;;;9.20;99.90;;;;;;5153138;27;20087;-62
2022/10/26 05:09:32;;;;;;;37.70;19.02;;;9.10;99.90;;;;;;5153219;27;20045;-62
2022/10/26 05:11:58;;;;;;;30.60;18.35;;;9.30;99.90;;;;;;5152546;27;20148;-63
2022/10/26 05:14:23;;;;;;;44.08;19.15;;;9.60;99.90;;;;;;5152829;27;20043;-65
2022/10/26 05:16:54;;;;;;;40.05;19.52;;;9.00;99.90;;;;;;5152530;27;20050;-64
2022/10/26 05:19:20;;;;;;;34.92;18.40;;;9.20;99.90;;;;;;5153108;27;20051;-62
2022/10/26 05:21:46;;;;;;;35.45;19.40;;;9.00;99.90;;;;;;5152546;27;20174;-63
2022/10/26 05:24:11;;;;;;;35.58;18.83;;;9.50;99.90;;;;;;5152589;27;20046;-62
2022/10/26 05:26:37;;;;;;;36.88;20.70;;;9.40;99.90;;;;;;5151835;27;20046;-62
2022/10/26 05:29:03;;;;;;;35.08;19.67;;;9.20;99.90;;;;;;5156335;27;20466;-62
2022/10/26 05:31:29;;;;;;;35.20;19.02;;;9.70;99.90;;;;;;5156463;27;20376;-62
2022/10/26 05:33:54;;;;;;;34.05;20.27;;;9.50;99.90;;;;;;5156740;27;20047;-65
2022/10/26 05:36:20;;;;;;;42.13;21.00;;;9.60;99.90;;;;;;5156432;27;20352;-62
2022/10/26 05:38:46;;;;;;;33.92;20.30;;;9.50;99.90;;;;;;5156253;27;20462;-63
2022/10/26 05:41:12;;;;;;;36.47;20.75;;;9.70;99.90;;;;;;5156146;27;20125;-62
2022/10/26 05:43:38;;;;;;;39.83;21.42;;;9.40;99.90;;;;;;5156712;27;20542;-63
2022/10/26 05:46:03;;;;;;;47.03;20.23;;;9.40;99.90;;;;;;5156389;27;20084;-62
2022/10/26 05:48:29;;;;;;;44.75;20.35;;;9.80;99.90;;;;;;5156034;27;20039;-62
2022/10/26 05:51:00;;;;;;;37.58;21.10;;;9.50;99.90;;;;;;5156686;27;20149;-62
2022/10/26 05:53:26;;;;;;;38.00;21.08;;;10.00;99.90;;;;;;5155940;27;20474;-67
2022/10/26 05:55:52;;;;;;;48.03;21.58;;;9.80;99.90;;;;;;5156031;27;20043;-63
2022/10/26 05:58:18;;;;;;;40.20;21.67;;;9.70;99.90;;;;;;5137710;27;20050;-62
2022/10/26 06:00:56;;;;;;;44.45;21.63;;;10.00;99.90;;;;;;5155105;27;20467;-62
2022/10/26 06:03:46;;;;;;;45.97;21.10;;;10.20;99.90;;;;;;5156209;27;20054;-64
2022/10/26 06:06:12;;;;;;;41.53;21.90;;;9.80;99.90;;;;;;5155881;27;20090;-63
2022/10/26 06:08:39;;;;;;;44.88;21.77;;;10.10;99.90;;;;;;5156039;27;20050;-63
2022/10/26 06:11:06;;;;;;;42.42;21.95;;;9.80;99.90;;;;;;5136620;27;20058;-62
2022/10/26 06:13:32;;;;;;;46.40;22.00;;;9.90;99.90;;;;;;5155970;27;20076;-64
2022/10/26 06:16:08;;;;;;;41.63;21.40;;;9.80;99.90;;;;;;5155761;27;20047;-62
2022/10/26 06:18:43;;;;;;;48.67;21.85;;;9.70;99.90;;;;;;5156137;27;20050;-62
2022/10/26 06:21:21;;;;;;;42.10;22.40;;;9.90;99.90;;;;;;5155723;27;20051;-62
2022/10/26 06:23:55;;;;;;;42.65;21.95;;;10.40;99.90;;;;;;5155009;27;20507;-62
2022/10/26 06:26:26;;;;;;;40.08;21.88;;;9.90;99.90;;;;;;5155351;27;20046;-65
2022/10/26 06:29:48;;;;;;;41.85;21.02;;;10.00;99.90;;;;;;5155583;27;20146;-63
2022/10/26 06:32:15;;;;;;;42.92;21.10;;;10.30;99.90;;;;;;5049984;28;20088;-62
2022/10/26 06:34:47;;;;;;;36.78;20.15;;;10.50;99.90;;;;;;5051305;28;20049;-62
2022/10/26 06:37:13;;;;;;;40.97;21.80;;;10.00;99.90;;;;;;5105532;27;20391;-64
2022/10/26 06:39:44;;;;;;;39.28;21.45;;;10.10;99.90;;;;;;5154265;27;20031;-62
2022/10/26 06:42:10;;;;;;;37.63;22.08;;;10.20;99.90;;;;;;5155229;27;20410;-63
2022/10/26 06:44:36;;;;;;;;;;;10.10;99.90;;;;;;5154911;27;20043;-62
2022/10/26 06:47:13;;;;;;;42.05;22.13;;;10.20;99.90;;;;;;5154227;27;19922;-62
2022/10/26 06:49:44;;;;;;;43.90;20.80;;;10.30;99.90;;;;;;5154872;27;20039;-62
2022/10/26 06:52:26;;;;;;;43.35;22.70;;;10.30;99.90;;;;;;5154742;27;20051;-63
2022/10/26 06:54:54;;;;;;;43.10;21.38;;;10.40;99.90;;;;;;5154986;27;20054;-65
2022/10/26 06:57:27;;;;;;;40.97;21.40;;;10.30;99.90;;;;;;5154873;27;20051;-63
2022/10/26 06:59:56;;;;;;;45.50;21.90;;;10.60;99.90;;;;;;5155655;27;20042;-62
2022/10/26 07:02:22;;;;;;;41.00;22.15;;;10.30;99.90;;;;;;5154920;27;20043;-63
2022/10/26 07:04:47;;;;;;;46.15;22.10;;;10.30;99.90;;;;;;5154978;27;20046;-63
2022/10/26 07:07:17;;;;;;;37.75;21.02;;;10.60;99.90;;;;;;5154328;27;20050;-62
2022/10/26 07:09:43;;;;;;;35.65;20.10;;;10.60;99.90;;;;;;5154286;27;20050;-62
2022/10/26 07:12:09;;;;;;;35.05;20.15;;;10.50;99.90;;;;;;5135523;27;20438;-63
2022/10/26 07:14:34;;;;;;;35.22;20.98;;;10.20;99.90;;;;;;5154624;27;20062;-62
2022/10/26 07:17:00;;;;;;;42.17;20.98;;;10.40;99.90;;;;;;5154394;27;20046;-64
2022/10/26 07:19:26;;;;;;;37.58;19.77;;;8.90;99.90;;;;;;5154417;27;20038;-63
2022/10/26 07:21:55;;;;;;;34.20;20.35;;;10.10;99.90;;;;;;5154004;27;20049;-62
2022/10/26 07:24:22;;;;;;;41.08;20.17;;;10.80;99.90;;;;;;5154364;27;20140;-62
2022/10/26 07:26:47;;;;;;;37.65;21.17;;;10.60;99.90;;;;;;5135829;27;20058;-65
2022/10/26 07:29:15;;;;;;;33.22;19.88;;;10.70;99.90;;;;;;5154526;27;20055;-63
2022/10/26 07:31:41;;;;;;;37.75;19.10;;;10.40;99.90;;;;;;5154476;27;20050;-62
2022/10/26 07:34:07;;;;;;;38.88;19.35;;;10.70;99.90;;;;;;5154546;27;20050;-64
2022/10/26 07:36:35;;;;;;;43.50;18.92;;;10.90;99.90;;;;;;5154084;27;20138;-64
2022/10/26 07:39:02;;;;;;;35.65;18.60;;;10.70;99.90;;;;;;5154268;27;20049;-62
2022/10/26 07:41:28;;;;;;;33.45;19.05;;;11.20;99.90;;;;;;5154271;27;20125;-63
2022/10/26 07:43:53;;;;;;;33.25;18.13;;;10.80;99.90;;;;;;5153891;27;20212;-64
2022/10/26 07:46:19;;;;;;;33.95;19.25;;;10.70;99.90;;;;;;5154318;27;20439;-63
2022/10/26 07:48:45;;;;;;;32.38;17.83;;;11.30;99.90;;;;;;5154574;27;20096;-63
2022/10/26 07:51:10;;;;;;;31.75;17.58;;;11.30;99.90;;;;;;5152968;27;20099;-64
2022/10/26 07:53:36;;;;;;;36.60;17.02;;;11.10;99.90;;;;;;5153633;27;20078;-63
2022/10/26 07:56:02;;;;;;;30.40;17.35;;;11.40;99.90;;;;;;5154231;27;20152;-63
2022/10/26 07:58:27;;;;;;;30.65;18.23;;;11.30;99.90;;;;;;5154235;27;20099;-64
2022/10/26 08:00:54;;;;;;;30.50;16.67;;;11.60;99.90;;;;;;5154286;27;20043;-63
2022/10/26 08:03:20;;;;;;;28.70;17.48;;;11.40;99.90;;;;;;5154027;27;20034;-63
2022/10/26 08:05:54;;;;;;;29.85;16.48;;;11.30;99.90;;;;;;5153145;27;20102;-63
2022/10/26 08:08:21;;;;;;;24.90;16.23;;;11.60;99.90;;;;;;5154279;27;20080;-63
2022/10/26 08:10:47;;;;;;;30.08;16.38;;;11.30;99.90;;;;;;5153158;27;20649;-63
2022/10/26 08:13:12;;;;;;;;;;;11.60;99.90;;;;;;5153929;27;20043;-67
2022/10/26 08:15:38;;;;;;;24.77;14.82;;;11.40;99.90;;;;;;5153378;27;19953;-63
2022/10/26 08:18:04;;;;;;;25.38;15.27;;;11.60;99.90;;;;;;5153553;27;20065;-63
2022/10/26 08:20:30;;;;;;;27.23;14.68;;;11.40;99.90;;;;;;5153097;27;20074;-63
2022/10/26 08:22:57;;;;;;;25.65;14.93;;;11.80;99.90;;;;;;5153663;27;20043;-63
2022/10/26 08:25:22;;;;;;;23.25;15.02;;;11.70;99.90;;;;;;5153533;27;20050;-63
2022/10/26 08:27:48;;;;;;;21.88;14.07;;;11.60;99.90;;;;;;5153984;27;20394;-65
2022/10/26 08:30:14;;;;;;;25.75;14.35;;;11.50;99.90;;;;;;5153121;27;20418;-63
2022/10/26 08:32:43;;;;;;;22.95;13.63;;;11.80;99.90;;;;;;5153068;27;20042;-63
2022/10/26 08:35:09;;;;;;;24.30;13.05;;;11.80;99.90;;;;;;5153157;27;20035;-62
2022/10/26 08:37:35;;;;;;;24.23;12.82;;;11.70;99.90;;;;;;5153864;27;20050;-62
2022/10/26 08:40:02;;;;;;;23.38;13.50;;;12.00;99.90;;;;;;5153345;27;20043;-63
2022/10/26 08:42:38;;;;;;;18.90;12.60;;;12.10;99.90;;;;;;5153024;27;20043;-64
2022/10/26 08:45:22;;;;;;;26.48;13.23;;;11.90;99.90;;;;;;5153222;27;20111;-63
2022/10/26 08:47:51;;;;;;;21.30;12.30;;;12.50;99.90;;;;;;5153328;27;20039;-63
2022/10/26 08:50:36;;;;;;;23.00;12.18;;;12.60;99.90;;;;;;5153136;27;20092;-65
2022/10/26 08:53:20;;;;;;;19.20;11.40;;;12.60;99.90;;;;;;5152959;27;20483;-63
2022/10/26 08:55:53;;;;;;;17.85;11.90;;;12.70;99.90;;;;;;5153259;27;20611;-63
2022/10/26 08:58:26;;;;;;;25.95;11.23;;;12.70;99.90;;;;;;5153282;27;20051;-63
2022/10/26 09:00:52;;;;;;;22.63;11.57;;;12.60;99.90;;;;;;5153707;27;20046;-63
2022/10/26 09:03:18;;;;;;;;;;;12.70;99.90;;;;;;5157334;27;20049;-64
2022/10/26 09:06:17;;;;;;;19.63;10.52;;;12.90;99.90;;;;;;5156896;27;19927;-63
2022/10/26 09:08:46;;;;;;;16.77;10.73;;;12.70;99.90;;;;;;5123134;27;20061;-63
2022/10/26 09:11:47;;;;;;;17.90;10.35;;;13.00;99.90;;;;;;5138577;27;20043;-63
2022/10/26 09:14:20;;;;;;;16.42;9.48;;;13.00;99.90;;;;;;5099330;27;20467;-63
2022/10/26 09:17:01;;;;;;;13.93;9.55;;;13.30;99.90;;;;;;5157116;27;20042;-64
2022/10/26 09:19:33;;;;;;;14.45;9.30;;;13.40;99.90;;;;;;5157590;27;20071;-64
2022/10/26 09:22:17;;;;;;;15.43;8.85;;;13.50;99.90;;;;;;5156655;27;20089;-63
2022/10/26 09:24:53;;;;;;;26.23;9.38;;;13.70;99.90;;;;;;5156880;27;20043;-65
2022/10/26 09:27:27;;;;;;;24.33;9.48;;;13.70;99.90;;;;;;5157465;27;20125;-63
2022/10/26 09:29:59;;;;;;;14.55;8.68;;;14.00;99.90;;;;;;5156474;27;20463;-64
2022/10/26 09:32:27;;;;;;;18.33;9.07;;;14.10;99.90;;;;;;5156273;27;20074;-63
2022/10/26 09:35:04;;;;;;;16.38;9.35;;;14.00;99.90;;;;;;5156602;27;20043;-63
2022/10/26 09:37:39;;;;;;;;;;;14.40;99.90;;;;;;5138325;27;20068;-63
2022/10/26 09:40:16;;;;;;;18.45;7.65;;;14.30;99.90;;;;;;5156701;27;19930;-64
2022/10/26 09:42:57;;;;;;;13.32;7.15;;;14.50;99.90;;;;;;5156332;27;20099;-64
2022/10/26 09:45:30;;;;;;;13.05;6.90;;;14.90;99.90;;;;;;5156723;27;20085;-64
2022/10/26 09:48:04;;;;;;;14.80;5.72;;;15.00;99.90;;;;;;5156750;27;20126;-63
2022/10/26 09:50:34;;;;;;;8.65;5.80;;;14.70;99.90;;;;;;5156347;27;20543;-63
2022/10/26 09:52:59;;;;;;;11.30;5.63;;;14.90;99.90;;;;;;5156459;27;20410;-67
2022/10/26 09:55:26;;;;;;;9.95;4.80;;;15.00;99.90;;;;;;5156411;27;20038;-63
2022/10/26 09:57:56;;;;;;;8.80;5.65;;;15.30;99.90;;;;;;5138464;27;20111;-63
2022/10/26 10:00:24;;;;;;;9.40;4.88;;;15.30;99.90;;;;;;5156372;27;20045;-64
2022/10/26 10:02:52;;;;;;;9.43;6.13;;;15.40;99.90;;;;;;5156042;27;20085;-64
2022/10/26 10:05:34;;;;;;;10.18;5.45;;;15.40;99.90;;;;;;5156247;27;20434;-64
2022/10/26 10:08:25;;;;;;;13.35;5.57;;;15.60;99.90;;;;;;5156008;27;20054;-64
2022/10/26 10:10:55;;;;;;;10.55;5.78;;;15.80;99.90;;;;;;5156547;27;20039;-63
2022/10/26 10:13:23;;;;;;;10.52;5.95;;;15.80;99.90;;;;;;5155020;27;20125;-64
2022/10/26 10:16:22;;;;;;;11.10;5.13;;;15.70;99.90;;;;;;5155583;27;20086;-63
2022/10/26 10:18:56;;;;;;;8.25;5.88;;;15.50;99.90;;;;;;5155674;27;20088;-63
2022/10/26 10:21:43;;;;;;;11.82;5.75;;;16.00;99.90;;;;;;5156163;27;20509;-63
2022/10/26 10:24:26;;;;;;;16.88;6.18;;;15.70;99.90;;;;;;5155099;27;20478;-64
2022/10/26 10:26:58;;;;;;;12.32;5.82;;;16.10;99.90;;;;;;5156075;27;20039;-64
2022/10/26 10:29:25;;;;;;;11.02;5.10;;;16.20;99.90;;;;;;5155419;27;20196;-63
2022/10/26 10:31:56;;;;;;;7.28;4.88;;;15.90;99.90;;;;;;5155232;27;20137;-64
2022/10/26 10:34:22;;;;;;;11.20;5.07;;;16.00;99.90;;;;;;5155642;27;20091;-63
2022/10/26 10:36:49;;;;;;;6.10;4.70;;;16.00;99.90;;;;;;5156141;27;20046;-63
2022/10/26 10:39:44;;;;;;;10.85;5.10;;;15.90;99.90;;;;;;5155369;27;20622;-64
2022/10/26 10:42:26;;;;;;;8.82;4.60;;;16.00;99.90;;;;;;5133783;27;20058;-65
2022/10/26 10:44:56;;;;;;;10.00;4.50;;;15.70;99.90;;;;;;5155380;27;20049;-64
2022/10/26 10:47:26;;;;;;;10.40;5.25;;;16.00;99.90;;;;;;5155937;27;20069;-63
2022/10/26 10:49:56;;;;;;;7.90;5.30;;;16.00;99.90;;;;;;5155491;27;20039;-63
2022/10/26 10:52:25;;;;;;;12.55;4.97;;;16.20;99.90;;;;;;5154310;27;20085;-66
2022/10/26 10:55:02;;;;;;;7.93;4.68;;;16.00;99.90;;;;;;5155013;27;20039;-65
2022/10/26 10:57:42;;;;;;;9.57;5.38;;;16.20;99.90;;;;;;5154890;27;20047;-63
2022/10/26 11:00:10;;;;;;;7.70;4.80;;;16.10;99.90;;;;;;5155134;27;20043;-63
2022/10/26 11:02:57;;;;;;;12.43;4.57;;;16.00;99.90;;;;;;5155538;27;20051;-64
2022/10/26 11:05:41;;;;;;;8.35;5.25;;;16.40;99.90;;;;;;5154924;27;20095;-63
2022/10/26 11:08:25;;;;;;;9.77;4.60;;;16.50;99.90;;;;;;5154700;27;20523;-63
2022/10/26 11:11:01;;;;;;;9.90;4.78;;;16.30;99.90;;;;;;5155200;27;20099;-64
2022/10/26 11:13:51;;;;;;;8.25;4.72;;;16.60;99.90;;;;;;5154626;27;20474;-63
2022/10/26 11:16:23;;;;;;;14.85;5.03;;;16.70;99.90;;;;;;5154729;27;20046;-65
2022/10/26 11:18:56;;;;;;;10.65;4.95;;;16.60;99.90;;;;;;5136330;27;20043;-64
2022/10/26 11:21:24;;;;;;;9.05;5.20;;;16.80;99.90;;;;;;5154473;27;20085;-63
2022/10/26 11:23:59;;;;;;;9.85;5.32;;;16.70;99.90;;;;;;5154838;27;20050;-65
2022/10/26 11:26:35;;;;;;;10.38;4.80;;;17.00;99.90;;;;;;5153845;27;20133;-65
2022/10/26 11:29:06;;;;;;;7.65;4.15;;;16.90;99.90;;;;;;5153783;27;20069;-63
2022/10/26 11:31:38;;;;;;;11.18;4.78;;;16.90;99.90;;;;;;5154818;27;20083;-64
2022/10/26 11:34:03;;;;;;;9.52;5.10;;;16.70;99.90;;;;;;5154563;27;20047;-63
2022/10/26 11:36:32;;;;;;;;;;;17.20;99.90;;;;;;5154602;27;20073;-64
2022/10/26 11:39:03;;;;;;;10.73;4.38;;;17.10;99.90;;;;;;5154623;27;19919;-64
2022/10/26 11:41:36;;;;;;;11.15;4.18;;;17.20;99.90;;;;;;5154551;27;20486;-63
2022/10/26 11:44:20;;;;;;;10.18;4.50;;;17.70;99.90;;;;;;5154350;27;20121;-63
2022/10/26 11:46:54;;;;;;;8.02;4.35;;;17.30;99.90;;;;;;5153985;27;20082;-65
2022/10/26 11:49:29;;;;;;;11.38;4.18;;;17.40;99.90;;;;;;5153820;27;20482;-64
2022/10/26 11:52:16;;;;;;;8.68;4.57;;;17.40;99.90;;;;;;5154632;27;20057;-63
2022/10/26 11:54:53;;;;;;;9.43;4.65;;;17.60;99.90;;;;;;5153842;27;20093;-64
2022/10/26 11:57:22;;;;;;;9.07;4.15;;;17.40;99.90;;;;;;5153426;27;20058;-64
2022/10/26 11:59:54;;;;;;;8.80;4.32;;;17.40;99.90;;;;;;5135516;27;20086;-64
2022/10/26 12:02:24;;;;;;;8.60;4.07;;;17.50;99.90;;;;;;5135150;27;20049;-64
2022/10/26 12:04:59;;;;;;;8.70;4.30;;;17.50;99.90;;;;;;5153981;27;20043;-64
2022/10/26 12:07:29;;;;;;;6.93;4.30;;;17.60;99.90;;;;;;5154331;27;20045;-64
2022/10/26 12:09:57;;;;;;;9.15;4.20;;;17.60;99.90;;;;;;5154020;27;20815;-64
2022/10/26 12:12:28;;;;;;;7.78;4.00;;;17.50;99.90;;;;;;5153462;27;20425;-66
2022/10/26 12:15:09;;;;;;;9.15;3.58;;;17.60;99.90;;;;;;5153881;27;20050;-64
2022/10/26 12:17:43;;;;;;;11.38;4.10;;;17.90;99.90;;;;;;5135648;27;20069;-63
2022/10/26 12:20:47;;;;;;;9.05;4.20;;;17.60;99.90;;;;;;5153563;27;20103;-64
2022/10/26 12:23:13;;;;;;;10.18;4.30;;;17.90;99.90;;;;;;5115945;27;20104;-65
2022/10/26 12:25:39;;;;;;;;;;;17.80;99.90;;;;;;5152837;27;20090;-64
2022/10/26 12:28:25;;;;;;;14.05;3.95;;;18.10;99.90;;;;;;5152768;27;19944;-64
2022/10/26 12:30:50;;;;;;;8.55;4.38;;;18.20;99.90;;;;;;5152874;27;20050;-63
2022/10/26 12:33:36;;;;;;;;;;;17.90;99.90;;;;;;5153616;27;20050;-64
2022/10/26 12:36:22;;;;;;;9.20;5.07;;;17.70;99.90;;;;;;5152014;27;19977;-65
2022/10/26 12:38:55;;;;;;;11.18;5.10;;;17.60;99.90;;;;;;5153273;27;20046;-63
2022/10/26 12:41:23;;;;;;;13.73;5.80;;;17.50;99.90;;;;;;5152908;27;20506;-67
2022/10/26 12:43:49;;;;;;;10.48;6.22;;;17.40;99.90;;;;;;5153823;27;20054;-63
2022/10/26 12:46:14;;;;;;;;;;;17.20;99.90;;;;;;5153363;27;20043;-63
2022/10/26 12:48:45;;;;;;;13.48;6.32;;;17.60;99.90;;;;;;5153100;27;19923;-64
2022/10/26 12:51:23;;;;;;;10.60;6.10;;;17.20;99.90;;;;;;5153659;27;20159;-69
2022/10/26 12:54:34;;;;;;;12.77;6.80;;;17.20;99.90;;;;;;5152957;27;20042;-64
2022/10/26 12:57:27;;;;;;;11.80;6.60;;;17.70;99.90;;;;;;5153801;27;20177;-64